Latest Coastal Weather Observations for Albany Airport

IDW60701

Issued at 12:22 am WST Friday 29 July 2016 (issued every 10 minutes, with the page automatically refreshed every 10 minutes)

About coastal observations | Map of coastal stations | Coastal observations for WA | Marine services | Other Formats
Station Details ID: 009999 Name: ALBANY AIRPORT Lat: -34.94 Lon: 117.82 Height: 68.4 m
Data from the previous 72 hours. | See also: Recent months at Albany Airport
Date/Time
WST
Temp
°C
Wind Pressure Rain since
9am
mm
Weather Cloud Vis
km
Sea
Height
m
Swell
Dir  Spd
kts
Gust
kts
hPa Trend Height
m
Period
s
Dir
29/12:00am 9.7 NE 5 6 1019.7 - 0.0 - Partly cloudy 2 - - - -
 
Date/Time
WST
Temp
°C
Wind Pressure Rain since
9am
mm
Weather Cloud Vis
km
Sea
Height
m
Swell
Dir  Spd
kts
Gust
kts
hPa Trend Height
m
Period
s
Dir
28/11:30pm 10.7 CALM 0 0 1020.0 - 0.0 - Partly cloudy 1 - - - -
28/11:00pm 10.6 NNE 1 3 1020.2 - 0.0 - Partly cloudy 0.5 - - - -
28/10:30pm 11.0 NNE 3 4 1020.4 - 0.0 - Partly cloudy 0.3 - - - -
28/10:15pm 11.9 NNE 3 3 1020.6 - 0.0 - Partly cloudy 6 - - - -
28/10:00pm 11.7 CALM 0 3 1020.8 - 0.0 - Partly cloudy 10 - - - -
28/09:30pm 11.7 N 5 6 1020.8 - 0.0 - Partly cloudy 10 - - - -
28/09:14pm 11.2 N 3 4 1020.9 - 0.0 - Partly cloudy 10 - - - -
28/09:00pm 10.9 N 3 4 1021.0 - 0.0 - Cloudy 1 - - - -
28/08:30pm 11.3 NNE 3 5 1020.8 - 0.0 - Partly cloudy 0.4 - - - -
28/08:00pm 12.0 CALM 0 0 1020.8 - 0.0 - Partly cloudy 0.6 - - - -
28/07:40pm 12.5 CALM 0 0 1020.9 - 0.0 - Partly cloudy 5 - - - -
28/07:30pm 12.5 CALM 0 0 1020.8 - 0.0 - Partly cloudy 10 - - - -
28/07:00pm 13.3 NW 3 4 1021.0 - 0.0 - Partly cloudy 10 - - - -
28/06:30pm 13.6 CALM 0 0 1021.0 - 0.0 - Cloudy 10 - - - -
28/06:00pm 13.8 CALM 0 0 1020.9 - 0.0 - Cloudy 10 - - - -
28/05:30pm 13.8 S 3 4 1020.2 - 0.0 - Partly cloudy 10 - - - -
28/05:08pm 13.9 S 3 4 1020.1 - 0.0 - Partly cloudy 10 - - - -
28/05:00pm 14.0 SSW 4 6 1020.0 - 0.0 - Partly cloudy 8 - - - -
28/04:55pm 14.1 SSW 5 8 1019.9 - 0.0 - Partly cloudy 6 - - - -
28/04:48pm 14.3 SSW 7 11 1019.8 - 0.0 - Partly cloudy 6 - - - -
28/04:42pm 14.8 S 6 11 1019.8 - 0.0 - Partly cloudy 10 - - - -
28/04:30pm 15.1 S 7 9 1019.8 - 0.0 - Partly cloudy 10 - - - -
28/04:00pm 15.4 S 7 9 1019.7 - 0.0 - Partly cloudy 10 - - - -
28/03:30pm 15.8 S 9 12 1019.6 - 0.0 - Partly cloudy 10 - - - -
28/03:00pm 16.9 SW 9 12 1019.6 - 0.0 - Mostly cloudy 10 - - - -
28/02:30pm 18.6 SW 9 12 1019.2 - 0.0 - Mostly clear 10 - - - -
28/02:00pm 18.8 WSW 9 11 1019.2 - 0.0 - Partly cloudy 10 - - - -
28/01:30pm 18.6 SW 9 13 1019.5 - 0.0 - Mostly clear 10 - - - -
28/01:00pm 18.6 W 8 11 1019.6 - 0.0 - Mostly clear 10 - - - -
28/12:30pm 17.9 W 7 9 1019.8 - 0.0 - Cloudy 10 - - - -
28/12:00pm 17.3 W 7 9 1020.6 - 0.0 - Mostly cloudy 10 - - - -
28/11:30am 17.0 W 8 11 1020.9 - 0.0 - Cloudy 10 - - - -
28/11:00am 16.4 WNW 10 12 1021.3 - 0.0 - Partly cloudy 10 - - - -
28/10:30am 16.5 WNW 8 11 1021.6 - 0.0 - Partly cloudy 10 - - - -
28/10:00am 15.3 WNW 7 9 1021.5 - 0.0 - Partly cloudy 10 - - - -
28/09:30am 14.5 WNW 7 10 1021.6 - 0.0 - Partly cloudy 10 - - - -
28/09:00am 12.3 NW 6 7 1022.0 - 0.0 - Mostly cloudy 10 - - - -
28/08:30am 10.9 W 5 6 1021.9 - 0.0 - Partly cloudy 10 - - - -
28/08:00am 10.4 NW 3 5 1021.8 - 0.0 - Cloudy 10 - - - -
28/07:30am 8.3 CALM 0 0 1021.6 - 0.0 - Cloudy 10 - - - -
28/07:00am 8.0 NW 3 4 1021.4 - 0.0 - Partly cloudy 10 - - - -
28/06:30am 9.3 NNW 5 6 1021.1 - 0.0 - Partly cloudy 10 - - - -
28/06:00am 9.8 N 5 6 1021.4 - 0.0 - Partly cloudy 10 - - - -
28/05:30am 10.6 NNW 5 6 1021.1 - 0.0 - Partly cloudy 10 - - - -
28/05:00am 10.3 N 3 5 1021.2 - 0.0 - Partly cloudy 10 - - - -
28/04:30am 11.0 N 7 9 1021.3 - 0.0 - Partly cloudy 10 - - - -
28/04:00am 10.9 NNW 6 8 1021.3 - 0.0 - - 10 - - - -
28/03:30am 10.7 N 6 9 1021.5 - 0.0 - - 10 - - - -
28/03:00am 9.3 NNE 3 5 1022.1 - 0.0 - - 10 - - - -
28/02:30am 9.5 N 3 3 1021.9 - 0.0 - - 10 - - - -
28/02:00am 9.2 NNE 5 6 1022.2 - 0.0 - - 10 - - - -
28/01:30am 9.6 NNE 5 6 1022.2 - 0.0 - - 10 - - - -
28/01:00am 9.7 N 6 7 1022.4 - 0.0 - - 10 - - - -
28/12:30am 9.4 N 4 5 1022.4 - 0.0 - - 10 - - - -
28/12:00am 9.5 N 5 5 1023.1 - 0.0 - - 10 - - - -
 
Date/Time
WST
Temp
°C
Wind Pressure Rain since
9am
mm
Weather Cloud Vis
km
Sea
Height
m
Swell
Dir  Spd
kts
Gust
kts
hPa Trend Height
m
Period
s
Dir
27/11:30pm 9.2 NNE 5 6 1023.0 - 0.0 - - 10 - - - -
27/11:00pm 9.2 NNE 5 6 1023.5 - 0.0 - - 10 - - - -
27/10:30pm 10.0 NE 5 5 1023.9 - 0.0 - - 10 - - - -
27/10:00pm 10.4 ENE 3 4 1024.4 - 0.0 - - 10 - - - -
27/09:30pm 10.4 NE 3 4 1024.5 - 0.0 - Partly cloudy 10 - - - -
27/09:00pm 9.8 NE 5 5 1024.2 - 0.0 - Mostly clear 10 - - - -
27/08:30pm 10.4 N 2 4 1024.6 - 0.0 - Partly cloudy 10 - - - -
27/08:00pm 10.7 CALM 0 0 1024.7 - 0.0 - Partly cloudy 10 - - - -
27/07:30pm 11.2 CALM 0 0 1024.6 - 0.0 - Partly cloudy 10 - - - -
27/07:00pm 10.9 WSW 2 5 1024.4 - 0.0 - Partly cloudy 10 - - - -
27/06:30pm 11.0 CALM 0 3 1024.2 - 0.0 - Partly cloudy 10 - - - -
27/06:00pm 11.7 E 1 6 1024.0 - 0.0 - - 10 - - - -
27/05:30pm 12.5 CALM 0 0 1024.0 - 0.0 - - 10 - - - -
27/05:00pm 14.0 NNW 3 4 1023.7 - 0.0 - - 10 - - - -
27/04:30pm 14.4 N 3 4 1023.7 - 0.0 - - 10 - - - -
27/04:00pm 15.2 N 5 7 1023.8 - 0.0 - Partly cloudy 10 - - - -
27/03:30pm 16.3 N 5 7 1023.8 - 0.0 - Mostly clear 10 - - - -
27/03:00pm 16.7 NNW 7 11 1024.0 - 0.0 - Mostly clear 10 - - - -
27/02:30pm 16.3 NNW 10 11 1023.7 - 0.0 - Partly cloudy 10 - - - -
27/02:00pm 16.9 WNW 4 6 1023.9 - 0.0 - Partly cloudy 10 - - - -
27/01:30pm 16.3 W 7 10 1024.3 - 0.0 - Mostly cloudy 10 - - - -
27/01:00pm 15.9 W 6 9 1024.5 - 0.0 - Mostly cloudy 10 - - - -
27/12:30pm 16.0 NW 9 13 1025.3 - 0.0 - Mostly cloudy 10 - - - -
27/12:00pm 15.0 WNW 8 11 1025.9 - 0.0 - Cloudy 10 - - - -
27/11:30am 14.5 NW 7 11 1026.2 - 0.0 - Partly cloudy 10 - - - -
27/11:00am 14.3 NNW 7 9 1026.5 - 0.0 - - 10 - - - -
27/10:30am 13.6 N 6 7 1026.8 - 0.0 - Partly cloudy 10 - - - -
27/10:00am 13.7 N 5 8 1027.2 - 0.0 - Mostly cloudy 10 - - - -
27/09:30am 13.0 NNW 4 6 1027.5 - 0.0 - Mostly cloudy 10 - - - -
27/09:00am 12.7 NNW 4 5 1027.8 - 0.2 - Cloudy 10 - - - -
27/08:30am 12.1 N 5 6 1027.6 - 0.2 - Mostly cloudy 10 - - - -
27/08:00am 11.8 NW 6 8 1027.5 - 0.2 - Mostly cloudy 10 - - - -
27/07:30am 11.3 NW 5 6 1027.4 - 0.2 - Mostly cloudy 10 - - - -
27/07:00am 11.2 NNW 5 6 1027.1 - 0.2 - Mostly cloudy 10 - - - -
27/06:30am 11.4 NW 5 7 1027.0 - 0.2 - Cloudy 10 - - - -
27/06:00am 11.6 NNW 6 7 1027.0 - 0.2 - Cloudy 10 - - - -
27/05:30am 11.4 N 7 9 1026.5 - 0.2 - Partly cloudy 10 - - - -
27/05:00am 11.4 NNW 8 10 1026.5 - 0.2 - Cloudy 10 - - - -
27/04:30am 11.6 NW 7 8 1026.5 - 0.2 - Cloudy 10 - - - -
27/04:00am 11.0 NW 7 10 1026.5 - 0.2 - Cloudy 10 - - - -
27/03:30am 10.3 NW 6 8 1026.1 - 0.2 - Partly cloudy 10 - - - -
27/03:00am 11.2 NW 4 6 1026.3 - 0.2 - Cloudy 10 - - - -
27/02:30am 11.5 WNW 5 6 1026.2 - 0.2 - Cloudy 10 - - - -
27/02:00am 11.5 WNW 7 8 1026.5 - 0.2 - Partly cloudy 10 - - - -
27/01:30am 11.4 NW 6 7 1026.8 - 0.2 - Cloudy 10 - - - -
27/01:00am 11.4 NW 6 8 1026.9 - 0.2 - Cloudy 10 - - - -
27/12:30am 11.3 NW 6 7 1027.0 - 0.2 - Cloudy 10 - - - -
27/12:00am 11.0 WNW 6 7 1027.5 - 0.2 - Partly cloudy 10 - - - -
 
Date/Time
WST
Temp
°C
Wind Pressure Rain since
9am
mm
Weather Cloud Vis
km
Sea
Height
m
Swell
Dir  Spd
kts
Gust
kts
hPa Trend Height
m
Period
s
Dir
26/11:30pm 11.1 NW 7 9 1027.4 - 0.2 - Partly cloudy 10 - - - -
26/11:00pm 11.7 WNW 7 9 1027.5 - 0.2 - Partly cloudy 10 - - - -
26/10:30pm 11.5 WNW 6 7 1027.5 - 0.2 - Partly cloudy 10 - - - -
26/10:00pm 11.3 WNW 6 7 1027.5 - 0.2 - Partly cloudy 10 - - - -
26/09:34pm 11.6 WNW 7 9 1027.4 - 0.2 - Partly cloudy 10 - - - -
26/09:30pm 11.6 WNW 8 9 1027.5 - 0.2 - Partly cloudy 10 - - - -
26/09:26pm 11.6 WNW 8 9 1027.5 - 0.2 - Partly cloudy 10 - - - -
26/09:05pm 11.4 WNW 6 8 1027.6 - 0.2 - Partly cloudy 6 - - - -
26/09:00pm 11.4 WNW 6 8 1027.7 - 0.2 - Cloudy 10 - - - -
26/08:44pm 11.3 NW 7 7 1027.4 - 0.2 - Partly cloudy 10 - - - -
26/08:30pm 11.2 NNW 5 6 1027.3 - 0.2 - Cloudy 10 - - - -
26/08:00pm 10.3 NNW 5 6 1027.2 - 0.2 - Cloudy 10 - - - -
26/07:30pm 10.5 NW 5 6 1027.1 - 0.2 - Partly cloudy 10 - - - -
26/07:00pm 11.4 WSW 5 6 1027.0 - 0.2 - Partly cloudy 10 - - - -
26/06:30pm 12.0 W 5 6 1026.8 - 0.2 - Partly cloudy 10 - - - -
26/06:00pm 12.8 W 7 9 1026.7 - 0.2 - Cloudy 10 - - - -
26/05:30pm 13.1 W 7 10 1026.2 - 0.2 - Cloudy 10 - - - -
26/05:00pm 13.4 W 8 11 1026.1 - 0.2 - Partly cloudy 10 - - - -
26/04:30pm 14.0 WSW 8 11 1026.0 - 0.2 - Partly cloudy 10 - - - -
26/04:00pm 14.5 W 8 12 1026.0 - 0.2 - Partly cloudy 10 - - - -
26/03:30pm 14.9 WSW 9 12 1025.8 - 0.2 - Cloudy 10 - - - -
26/03:00pm 15.3 WSW 10 15 1025.6 - 0.2 - Mostly cloudy 10 - - - -
26/02:30pm 14.9 WSW 11 16 1025.4 - 0.2 - Mostly clear 10 - - - -
26/02:01pm 14.2 WSW 9 12 1025.3 - 0.2 Showers Mostly clear 10 - - - -
26/01:30pm 15.8 W 14 19 1025.2 - 0.0 - Mostly clear 10 - - - -
26/01:00pm 15.0 WSW 11 15 1025.4 - 0.0 - Mostly clear 10 - - - -
26/12:30pm 14.8 W 11 16 1025.6 - 0.0 - Mostly clear 10 - - - -
26/12:00pm 14.9 W 12 16 1026.1 - 0.0 - Cloudy 10 - - - -
26/11:30am 15.6 WSW 11 18 1026.0 - 0.0 - Mostly clear 10 - - - -
26/11:00am 15.0 W 10 19 1026.1 - 0.0 - Mostly clear 10 - - - -
26/10:50am 14.2 WSW 9 13 1026.2 - 0.0 - Partly cloudy 10 - - - -
26/10:30am 13.6 WSW 10 13 1026.5 - 0.0 Showers Mostly clear 8 - - - -
26/10:00am 12.4 W 10 12 1026.5 - 0.0 Showers Mostly clear 8 - - - -
26/09:30am 12.5 W 9 13 1026.2 - 0.0 - Mostly clear 10 - - - -
26/09:00am 11.7 WNW 9 11 1026.3 - 2.2 - Cloudy 10 - - - -
26/08:30am 11.1 WNW 9 12 1025.9 - 2.2 Showers Partly cloudy 6 - - - -
26/08:17am 11.2 W 10 12 1025.9 - 2.2 Showers Partly cloudy 6 - - - -
26/08:00am 10.9 WNW 9 13 1025.5 - 2.2 - Mostly clear 10 - - - -
26/07:30am 10.7 W 9 12 1025.3 - 2.2 - Mostly clear 10 - - - -
26/07:00am 10.5 WNW 9 11 1024.9 - 2.2 - Mostly clear 10 - - - -
26/06:30am 10.4 WNW 10 12 1024.7 - 2.2 - Partly cloudy 10 - - - -
26/06:00am 10.5 WNW 10 15 1024.7 - 2.2 - Cloudy 10 - - - -
26/05:30am 10.4 WNW 9 11 1024.5 - 2.2 - Partly cloudy 10 - - - -
26/05:00am 9.8 W 10 11 1024.2 - 2.2 - Partly cloudy 10 - - - -
26/04:30am 10.3 WNW 10 13 1024.3 - 2.2 - Partly cloudy 10 - - - -
26/04:00am 10.2 WNW 10 12 1024.0 - 2.2 - Partly cloudy 10 - - - -
26/03:30am 10.4 WNW 10 12 1024.1 - 2.2 - Partly cloudy 10 - - - -
26/03:00am 10.2 WNW 10 12 1024.2 - 2.2 - Partly cloudy 10 - - - -
26/02:30am 10.6 W 11 14 1023.8 - 2.2 - Partly cloudy 10 - - - -
26/02:00am 10.4 WNW 12 16 1023.9 - 2.2 - Partly cloudy 10 - - - -
26/01:30am 10.2 WNW 11 13 1023.9 - 2.2 - Partly cloudy 10 - - - -
26/01:00am 10.3 WNW 11 15 1023.9 - 2.2 - - 10 - - - -
26/12:30am 10.6 WNW 12 17 1024.0 - 2.2 - - 10 - - - -

Other Formats:

Comma delimited format used in spreadsheet applications
http://www.bom.gov.au/fwo/IDW60701/IDW60701.94802.axf

JavaScript Object Notation format (JSON) in row-major order
http://www.bom.gov.au/fwo/IDW60701/IDW60701.94802.json